sensor_id;sensor_type;location;lat;lon;timestamp;P1;durP1;ratioP1;P2;durP2;ratioP2
85523;SDS011;75932;48.616;9.270;2024-02-21T00:01:26;13.73;;;10.73;;
85523;SDS011;75932;48.616;9.270;2024-02-21T00:03:51;16.63;;;11.57;;
85523;SDS011;75932;48.616;9.270;2024-02-21T00:06:16;20.77;;;11.60;;
85523;SDS011;75932;48.616;9.270;2024-02-21T00:08:42;17.93;;;11.67;;
85523;SDS011;75932;48.616;9.270;2024-02-21T00:11:07;20.27;;;12.73;;
85523;SDS011;75932;48.616;9.270;2024-02-21T00:13:32;19.27;;;12.13;;
85523;SDS011;75932;48.616;9.270;2024-02-21T00:16:00;18.47;;;10.83;;
85523;SDS011;75932;48.616;9.270;2024-02-21T00:18:26;20.35;;;13.43;;
85523;SDS011;75932;48.616;9.270;2024-02-21T00:20:51;21.10;;;12.17;;
85523;SDS011;75932;48.616;9.270;2024-02-21T00:23:16;17.40;;;12.10;;
85523;SDS011;75932;48.616;9.270;2024-02-21T00:25:41;22.90;;;11.47;;
85523;SDS011;75932;48.616;9.270;2024-02-21T00:28:07;17.33;;;10.33;;
85523;SDS011;75932;48.616;9.270;2024-02-21T00:30:32;14.40;;;12.07;;
85523;SDS011;75932;48.616;9.270;2024-02-21T00:32:57;20.40;;;10.80;;
85523;SDS011;75932;48.616;9.270;2024-02-21T00:35:23;14.97;;;10.87;;
85523;SDS011;75932;48.616;9.270;2024-02-21T00:37:48;14.63;;;10.27;;
85523;SDS011;75932;48.616;9.270;2024-02-21T00:40:13;17.07;;;11.63;;
85523;SDS011;75932;48.616;9.270;2024-02-21T00:42:44;23.13;;;13.15;;
85523;SDS011;75932;48.616;9.270;2024-02-21T00:45:10;14.25;;;10.25;;
85523;SDS011;75932;48.616;9.270;2024-02-21T00:47:36;21.02;;;13.70;;
85523;SDS011;75932;48.616;9.270;2024-02-21T00:50:01;17.93;;;12.03;;
85523;SDS011;75932;48.616;9.270;2024-02-21T00:52:26;14.87;;;10.70;;
85523;SDS011;75932;48.616;9.270;2024-02-21T00:54:52;12.53;;;10.17;;
85523;SDS011;75932;48.616;9.270;2024-02-21T00:57:17;16.87;;;12.47;;
85523;SDS011;75932;48.616;9.270;2024-02-21T00:59:42;17.97;;;10.87;;
85523;SDS011;75932;48.616;9.270;2024-02-21T01:02:07;16.02;;;7.95;;
85523;SDS011;75932;48.616;9.270;2024-02-21T01:04:34;15.63;;;11.60;;
85523;SDS011;75932;48.616;9.270;2024-02-21T01:06:59;13.68;;;10.25;;
85523;SDS011;75932;48.616;9.270;2024-02-21T01:09:25;14.07;;;9.97;;
85523;SDS011;75932;48.616;9.270;2024-02-21T01:11:50;14.87;;;11.53;;
85523;SDS011;75932;48.616;9.270;2024-02-21T01:14:16;15.38;;;10.35;;
85523;SDS011;75932;48.616;9.270;2024-02-21T01:16:41;16.40;;;9.97;;
85523;SDS011;75932;48.616;9.270;2024-02-21T01:19:06;17.77;;;9.67;;
85523;SDS011;75932;48.616;9.270;2024-02-21T01:21:32;14.83;;;7.70;;
85523;SDS011;75932;48.616;9.270;2024-02-21T01:23:57;14.80;;;10.17;;
85523;SDS011;75932;48.616;9.270;2024-02-21T01:26:22;15.73;;;9.93;;
85523;SDS011;75932;48.616;9.270;2024-02-21T01:28:48;16.95;;;9.85;;
85523;SDS011;75932;48.616;9.270;2024-02-21T01:31:13;13.98;;;8.93;;
85523;SDS011;75932;48.616;9.270;2024-02-21T01:33:40;18.50;;;9.20;;
85523;SDS011;75932;48.616;9.270;2024-02-21T01:36:06;11.52;;;7.35;;
85523;SDS011;75932;48.616;9.270;2024-02-21T01:38:31;15.63;;;11.77;;
85523;SDS011;75932;48.616;9.270;2024-02-21T01:40:57;16.77;;;8.35;;
85523;SDS011;75932;48.616;9.270;2024-02-21T01:43:22;13.75;;;8.65;;
85523;SDS011;75932;48.616;9.270;2024-02-21T01:45:57;15.35;;;7.82;;
85523;SDS011;75932;48.616;9.270;2024-02-21T01:48:23;10.98;;;7.28;;
85523;SDS011;75932;48.616;9.270;2024-02-21T01:50:49;14.68;;;7.85;;
85523;SDS011;75932;48.616;9.270;2024-02-21T01:53:16;18.95;;;8.95;;
85523;SDS011;75932;48.616;9.270;2024-02-21T01:55:45;11.48;;;7.40;;
85523;SDS011;75932;48.616;9.270;2024-02-21T01:58:11;12.48;;;8.60;;
85523;SDS011;75932;48.616;9.270;2024-02-21T02:00:38;12.85;;;9.27;;
85523;SDS011;75932;48.616;9.270;2024-02-21T02:03:06;11.00;;;7.72;;
85523;SDS011;75932;48.616;9.270;2024-02-21T02:05:35;12.20;;;9.85;;
85523;SDS011;75932;48.616;9.270;2024-02-21T02:08:00;14.40;;;8.93;;
85523;SDS011;75932;48.616;9.270;2024-02-21T02:10:26;13.95;;;8.05;;
85523;SDS011;75932;48.616;9.270;2024-02-21T02:12:53;11.73;;;7.28;;
85523;SDS011;75932;48.616;9.270;2024-02-21T02:15:21;11.57;;;8.07;;
85523;SDS011;75932;48.616;9.270;2024-02-21T02:17:46;12.80;;;7.63;;
85523;SDS011;75932;48.616;9.270;2024-02-21T02:20:11;15.63;;;9.20;;
85523;SDS011;75932;48.616;9.270;2024-02-21T02:22:37;11.52;;;8.45;;
85523;SDS011;75932;48.616;9.270;2024-02-21T02:25:06;10.60;;;7.03;;
85523;SDS011;75932;48.616;9.270;2024-02-21T02:27:31;12.93;;;7.65;;
85523;SDS011;75932;48.616;9.270;2024-02-21T02:29:57;13.53;;;7.17;;
85523;SDS011;75932;48.616;9.270;2024-02-21T02:32:22;9.63;;;7.20;;
85523;SDS011;75932;48.616;9.270;2024-02-21T02:34:47;11.47;;;7.70;;
85523;SDS011;75932;48.616;9.270;2024-02-21T02:37:12;11.70;;;8.10;;
85523;SDS011;75932;48.616;9.270;2024-02-21T02:39:38;14.87;;;7.47;;
85523;SDS011;75932;48.616;9.270;2024-02-21T02:42:03;10.93;;;7.00;;
85523;SDS011;75932;48.616;9.270;2024-02-21T02:44:29;14.45;;;8.70;;
85523;SDS011;75932;48.616;9.270;2024-02-21T02:46:54;15.20;;;7.20;;
85523;SDS011;75932;48.616;9.270;2024-02-21T02:49:19;10.17;;;8.47;;
85523;SDS011;75932;48.616;9.270;2024-02-21T02:51:44;15.27;;;8.90;;
85523;SDS011;75932;48.616;9.270;2024-02-21T02:54:10;11.77;;;7.37;;
85523;SDS011;75932;48.616;9.270;2024-02-21T02:56:36;17.92;;;8.73;;
85523;SDS011;75932;48.616;9.270;2024-02-21T02:59:01;14.80;;;9.47;;
85523;SDS011;75932;48.616;9.270;2024-02-21T03:01:26;13.83;;;8.10;;
85523;SDS011;75932;48.616;9.270;2024-02-21T03:03:52;10.05;;;7.78;;
85523;SDS011;75932;48.616;9.270;2024-02-21T03:06:17;11.52;;;8.65;;
85523;SDS011;75932;48.616;9.270;2024-02-21T03:08:42;14.83;;;7.67;;
85523;SDS011;75932;48.616;9.270;2024-02-21T03:11:08;11.82;;;7.95;;
85523;SDS011;75932;48.616;9.270;2024-02-21T03:13:33;11.97;;;6.93;;
85523;SDS011;75932;48.616;9.270;2024-02-21T03:15:59;9.13;;;7.53;;
85523;SDS011;75932;48.616;9.270;2024-02-21T03:18:24;12.33;;;7.60;;
85523;SDS011;75932;48.616;9.270;2024-02-21T03:20:49;12.40;;;8.27;;
85523;SDS011;75932;48.616;9.270;2024-02-21T03:23:15;11.23;;;7.07;;
85523;SDS011;75932;48.616;9.270;2024-02-21T03:25:40;10.02;;;7.07;;
85523;SDS011;75932;48.616;9.270;2024-02-21T03:28:06;12.27;;;6.90;;
85523;SDS011;75932;48.616;9.270;2024-02-21T03:30:31;12.97;;;8.33;;
85523;SDS011;75932;48.616;9.270;2024-02-21T03:32:56;14.73;;;7.90;;
85523;SDS011;75932;48.616;9.270;2024-02-21T03:35:22;13.73;;;6.77;;
85523;SDS011;75932;48.616;9.270;2024-02-21T03:37:51;11.25;;;9.93;;
85523;SDS011;75932;48.616;9.270;2024-02-21T03:40:16;11.38;;;7.32;;
85523;SDS011;75932;48.616;9.270;2024-02-21T03:42:42;8.43;;;6.73;;
85523;SDS011;75932;48.616;9.270;2024-02-21T03:45:07;10.35;;;7.38;;
85523;SDS011;75932;48.616;9.270;2024-02-21T03:47:33;10.95;;;8.45;;
85523;SDS011;75932;48.616;9.270;2024-02-21T03:49:58;10.00;;;5.87;;
85523;SDS011;75932;48.616;9.270;2024-02-21T03:52:24;9.05;;;7.25;;
85523;SDS011;75932;48.616;9.270;2024-02-21T03:54:50;12.68;;;7.40;;
85523;SDS011;75932;48.616;9.270;2024-02-21T03:57:15;11.07;;;7.70;;
85523;SDS011;75932;48.616;9.270;2024-02-21T03:59:42;12.23;;;7.47;;
85523;SDS011;75932;48.616;9.270;2024-02-21T04:02:08;10.63;;;7.20;;
85523;SDS011;75932;48.616;9.270;2024-02-21T04:04:35;10.05;;;6.70;;
85523;SDS011;75932;48.616;9.270;2024-02-21T04:07:02;11.18;;;5.45;;
85523;SDS011;75932;48.616;9.270;2024-02-21T04:09:31;18.88;;;7.32;;
85523;SDS011;75932;48.616;9.270;2024-02-21T04:11:57;8.85;;;6.18;;
85523;SDS011;75932;48.616;9.270;2024-02-21T04:14:22;8.40;;;7.33;;
85523;SDS011;75932;48.616;9.270;2024-02-21T04:16:47;9.93;;;8.10;;
85523;SDS011;75932;48.616;9.270;2024-02-21T04:19:13;8.80;;;7.43;;
85523;SDS011;75932;48.616;9.270;2024-02-21T04:21:40;11.40;;;8.15;;
85523;SDS011;75932;48.616;9.270;2024-02-21T04:24:06;7.67;;;5.70;;
85523;SDS011;75932;48.616;9.270;2024-02-21T04:26:31;9.13;;;7.35;;
85523;SDS011;75932;48.616;9.270;2024-02-21T04:28:57;9.40;;;7.27;;
85523;SDS011;75932;48.616;9.270;2024-02-21T04:31:22;9.03;;;6.83;;
85523;SDS011;75932;48.616;9.270;2024-02-21T04:33:47;11.80;;;7.33;;
85523;SDS011;75932;48.616;9.270;2024-02-21T04:36:12;11.50;;;6.53;;
85523;SDS011;75932;48.616;9.270;2024-02-21T04:38:38;12.60;;;8.37;;
85523;SDS011;75932;48.616;9.270;2024-02-21T04:41:04;9.10;;;6.35;;
85523;SDS011;75932;48.616;9.270;2024-02-21T04:43:29;8.67;;;7.30;;
85523;SDS011;75932;48.616;9.270;2024-02-21T04:45:54;10.80;;;5.63;;
85523;SDS011;75932;48.616;9.270;2024-02-21T04:48:19;9.97;;;6.53;;
85523;SDS011;75932;48.616;9.270;2024-02-21T04:50:45;11.25;;;7.85;;
85523;SDS011;75932;48.616;9.270;2024-02-21T04:53:11;9.47;;;6.97;;
85523;SDS011;75932;48.616;9.270;2024-02-21T04:55:36;9.37;;;7.80;;
85523;SDS011;75932;48.616;9.270;2024-02-21T04:58:01;8.70;;;7.10;;
85523;SDS011;75932;48.616;9.270;2024-02-21T05:00:29;13.27;;;6.97;;
85523;SDS011;75932;48.616;9.270;2024-02-21T05:02:54;15.45;;;7.13;;
85523;SDS011;75932;48.616;9.270;2024-02-21T05:05:19;9.07;;;7.13;;
85523;SDS011;75932;48.616;9.270;2024-02-21T05:07:45;14.00;;;6.23;;
85523;SDS011;75932;48.616;9.270;2024-02-21T05:10:10;8.90;;;7.07;;
85523;SDS011;75932;48.616;9.270;2024-02-21T05:12:35;11.47;;;7.13;;
85523;SDS011;75932;48.616;9.270;2024-02-21T05:15:01;10.03;;;6.53;;
85523;SDS011;75932;48.616;9.270;2024-02-21T05:17:27;14.30;;;8.75;;
85523;SDS011;75932;48.616;9.270;2024-02-21T05:19:53;9.05;;;7.28;;
85523;SDS011;75932;48.616;9.270;2024-02-21T05:22:18;10.33;;;5.90;;
85523;SDS011;75932;48.616;9.270;2024-02-21T05:24:43;8.27;;;7.37;;
85523;SDS011;75932;48.616;9.270;2024-02-21T05:27:09;9.20;;;6.67;;
85523;SDS011;75932;48.616;9.270;2024-02-21T05:29:36;10.07;;;7.95;;
85523;SDS011;75932;48.616;9.270;2024-02-21T05:32:02;12.73;;;8.97;;
85523;SDS011;75932;48.616;9.270;2024-02-21T05:34:27;8.13;;;5.93;;
85523;SDS011;75932;48.616;9.270;2024-02-21T05:36:53;7.43;;;6.53;;
85523;SDS011;75932;48.616;9.270;2024-02-21T05:39:18;12.00;;;8.73;;
85523;SDS011;75932;48.616;9.270;2024-02-21T05:41:44;12.63;;;6.60;;
85523;SDS011;75932;48.616;9.270;2024-02-21T05:44:10;7.20;;;6.18;;
85523;SDS011;75932;48.616;9.270;2024-02-21T05:46:36;10.95;;;7.55;;
85523;SDS011;75932;48.616;9.270;2024-02-21T05:49:01;10.90;;;7.00;;
85523;SDS011;75932;48.616;9.270;2024-02-21T05:51:26;7.32;;;6.53;;
85523;SDS011;75932;48.616;9.270;2024-02-21T05:53:52;7.80;;;7.10;;
85523;SDS011;75932;48.616;9.270;2024-02-21T05:56:17;8.37;;;6.03;;
85523;SDS011;75932;48.616;9.270;2024-02-21T05:58:43;9.70;;;6.28;;
85523;SDS011;75932;48.616;9.270;2024-02-21T06:01:08;8.20;;;6.72;;
85523;SDS011;75932;48.616;9.270;2024-02-21T06:03:34;12.25;;;8.18;;
85523;SDS011;75932;48.616;9.270;2024-02-21T06:06:01;11.55;;;7.10;;
85523;SDS011;75932;48.616;9.270;2024-02-21T06:08:27;10.73;;;8.52;;
85523;SDS011;75932;48.616;9.270;2024-02-21T06:10:52;8.83;;;6.90;;
85523;SDS011;75932;48.616;9.270;2024-02-21T06:13:19;13.35;;;6.53;;
85523;SDS011;75932;48.616;9.270;2024-02-21T06:15:53;8.80;;;7.88;;
85523;SDS011;75932;48.616;9.270;2024-02-21T06:18:19;11.87;;;7.30;;
85523;SDS011;75932;48.616;9.270;2024-02-21T06:20:45;9.40;;;7.65;;
85523;SDS011;75932;48.616;9.270;2024-02-21T06:23:11;11.38;;;7.97;;
85523;SDS011;75932;48.616;9.270;2024-02-21T06:25:37;9.52;;;7.00;;
85523;SDS011;75932;48.616;9.270;2024-02-21T06:28:04;10.10;;;7.45;;
85523;SDS011;75932;48.616;9.270;2024-02-21T06:30:30;11.15;;;7.97;;
85523;SDS011;75932;48.616;9.270;2024-02-21T06:32:55;13.87;;;9.10;;
85523;SDS011;75932;48.616;9.270;2024-02-21T06:35:21;11.93;;;9.90;;
85523;SDS011;75932;48.616;9.270;2024-02-21T06:37:47;16.50;;;9.88;;
85523;SDS011;75932;48.616;9.270;2024-02-21T06:40:16;12.63;;;10.13;;
85523;SDS011;75932;48.616;9.270;2024-02-21T06:42:41;8.27;;;7.00;;
85523;SDS011;75932;48.616;9.270;2024-02-21T06:45:07;10.87;;;9.47;;
85523;SDS011;75932;48.616;9.270;2024-02-21T06:47:32;9.68;;;8.25;;
85523;SDS011;75932;48.616;9.270;2024-02-21T06:49:57;9.40;;;7.97;;
85523;SDS011;75932;48.616;9.270;2024-02-21T06:52:23;13.40;;;9.97;;
85523;SDS011;75932;48.616;9.270;2024-02-21T06:54:49;11.25;;;7.25;;
85523;SDS011;75932;48.616;9.270;2024-02-21T06:57:15;13.00;;;9.50;;
85523;SDS011;75932;48.616;9.270;2024-02-21T06:59:40;10.02;;;8.02;;
85523;SDS011;75932;48.616;9.270;2024-02-21T07:02:06;13.05;;;8.43;;
85523;SDS011;75932;48.616;9.270;2024-02-21T07:04:32;9.18;;;7.05;;
85523;SDS011;75932;48.616;9.270;2024-02-21T07:06:58;13.95;;;9.57;;
85523;SDS011;75932;48.616;9.270;2024-02-21T07:09:23;9.00;;;6.77;;
85523;SDS011;75932;48.616;9.270;2024-02-21T07:11:48;12.63;;;8.03;;
85523;SDS011;75932;48.616;9.270;2024-02-21T07:14:14;10.70;;;6.53;;
85523;SDS011;75932;48.616;9.270;2024-02-21T07:16:40;10.55;;;7.72;;
85523;SDS011;75932;48.616;9.270;2024-02-21T07:19:05;10.33;;;8.60;;
85523;SDS011;75932;48.616;9.270;2024-02-21T07:21:31;8.23;;;6.57;;
85523;SDS011;75932;48.616;9.270;2024-02-21T07:23:56;14.05;;;7.53;;
85523;SDS011;75932;48.616;9.270;2024-02-21T07:26:22;10.15;;;7.22;;
85523;SDS011;75932;48.616;9.270;2024-02-21T07:28:47;9.27;;;6.53;;
85523;SDS011;75932;48.616;9.270;2024-02-21T07:31:12;10.63;;;8.40;;
85523;SDS011;75932;48.616;9.270;2024-02-21T07:33:38;10.37;;;8.33;;
85523;SDS011;75932;48.616;9.270;2024-02-21T07:36:10;11.13;;;6.77;;
85523;SDS011;75932;48.616;9.270;2024-02-21T07:38:36;13.73;;;11.98;;
85523;SDS011;75932;48.616;9.270;2024-02-21T07:41:01;10.80;;;8.07;;
85523;SDS011;75932;48.616;9.270;2024-02-21T07:43:27;16.75;;;7.30;;
85523;SDS011;75932;48.616;9.270;2024-02-21T07:45:53;9.73;;;7.67;;
85523;SDS011;75932;48.616;9.270;2024-02-21T07:48:18;8.07;;;7.10;;
85523;SDS011;75932;48.616;9.270;2024-02-21T07:50:44;7.85;;;6.35;;
85523;SDS011;75932;48.616;9.270;2024-02-21T07:53:09;9.13;;;5.30;;
85523;SDS011;75932;48.616;9.270;2024-02-21T07:55:37;8.38;;;6.55;;
85523;SDS011;75932;48.616;9.270;2024-02-21T07:58:02;11.13;;;6.10;;
85523;SDS011;75932;48.616;9.270;2024-02-21T08:00:28;8.82;;;7.65;;
85523;SDS011;75932;48.616;9.270;2024-02-21T08:02:53;10.57;;;5.17;;
85523;SDS011;75932;48.616;9.270;2024-02-21T08:05:18;11.87;;;5.60;;
85523;SDS011;75932;48.616;9.270;2024-02-21T08:07:43;10.97;;;7.30;;
85523;SDS011;75932;48.616;9.270;2024-02-21T08:10:09;9.50;;;8.25;;
85523;SDS011;75932;48.616;9.270;2024-02-21T08:12:34;8.43;;;6.17;;
85523;SDS011;75932;48.616;9.270;2024-02-21T08:15:00;8.27;;;7.18;;
85523;SDS011;75932;48.616;9.270;2024-02-21T08:17:26;11.02;;;5.88;;
85523;SDS011;75932;48.616;9.270;2024-02-21T08:19:51;7.43;;;4.77;;
85523;SDS011;75932;48.616;9.270;2024-02-21T08:22:16;8.77;;;6.63;;
85523;SDS011;75932;48.616;9.270;2024-02-21T08:24:42;7.10;;;5.33;;
85523;SDS011;75932;48.616;9.270;2024-02-21T08:27:07;7.15;;;6.30;;
85523;SDS011;75932;48.616;9.270;2024-02-21T08:29:32;10.33;;;5.63;;
85523;SDS011;75932;48.616;9.270;2024-02-21T08:34:25;8.77;;;5.73;;
85523;SDS011;75932;48.616;9.270;2024-02-21T08:36:51;7.70;;;6.00;;
85523;SDS011;75932;48.616;9.270;2024-02-21T08:39:16;7.97;;;6.50;;
85523;SDS011;75932;48.616;9.270;2024-02-21T08:41:41;10.53;;;7.60;;
85523;SDS011;75932;48.616;9.270;2024-02-21T08:44:10;7.53;;;5.20;;
85523;SDS011;75932;48.616;9.270;2024-02-21T08:46:35;6.63;;;5.13;;
85523;SDS011;75932;48.616;9.270;2024-02-21T08:51:28;7.77;;;6.73;;
85523;SDS011;75932;48.616;9.270;2024-02-21T08:53:54;7.18;;;4.40;;
85523;SDS011;75932;48.616;9.270;2024-02-21T08:56:20;10.98;;;5.43;;
85523;SDS011;75932;48.616;9.270;2024-02-21T08:58:45;7.67;;;5.70;;
85523;SDS011;75932;48.616;9.270;2024-02-21T09:01:10;7.30;;;5.57;;
85523;SDS011;75932;48.616;9.270;2024-02-21T09:03:36;8.90;;;5.50;;
85523;SDS011;75932;48.616;9.270;2024-02-21T09:06:02;11.75;;;6.47;;
85523;SDS011;75932;48.616;9.270;2024-02-21T09:08:28;11.18;;;6.35;;
85523;SDS011;75932;48.616;9.270;2024-02-21T09:10:53;12.00;;;7.10;;
85523;SDS011;75932;48.616;9.270;2024-02-21T09:13:18;9.15;;;6.50;;
85523;SDS011;75932;48.616;9.270;2024-02-21T09:18:12;8.75;;;5.90;;
85523;SDS011;75932;48.616;9.270;2024-02-21T09:20:38;8.30;;;6.00;;
85523;SDS011;75932;48.616;9.270;2024-02-21T09:23:03;6.60;;;5.93;;
85523;SDS011;75932;48.616;9.270;2024-02-21T09:25:28;12.37;;;5.10;;
85523;SDS011;75932;48.616;9.270;2024-02-21T09:27:54;9.23;;;6.47;;
85523;SDS011;75932;48.616;9.270;2024-02-21T09:30:19;7.97;;;4.55;;
85523;SDS011;75932;48.616;9.270;2024-02-21T09:32:45;8.30;;;5.15;;
85523;SDS011;75932;48.616;9.270;2024-02-21T09:35:10;7.22;;;5.88;;
85523;SDS011;75932;48.616;9.270;2024-02-21T09:37:37;6.30;;;5.70;;
85523;SDS011;75932;48.616;9.270;2024-02-21T09:40:03;6.63;;;5.57;;
85523;SDS011;75932;48.616;9.270;2024-02-21T09:42:38;8.27;;;5.40;;
85523;SDS011;75932;48.616;9.270;2024-02-21T09:45:07;11.23;;;10.25;;
85523;SDS011;75932;48.616;9.270;2024-02-21T09:47:38;9.93;;;5.22;;
85523;SDS011;75932;48.616;9.270;2024-02-21T09:50:15;7.25;;;6.15;;
85523;SDS011;75932;48.616;9.270;2024-02-21T09:52:42;7.88;;;4.43;;
85523;SDS011;75932;48.616;9.270;2024-02-21T09:55:09;8.35;;;4.38;;
85523;SDS011;75932;48.616;9.270;2024-02-21T09:57:38;9.60;;;7.57;;
85523;SDS011;75932;48.616;9.270;2024-02-21T10:00:04;9.43;;;6.65;;
85523;SDS011;75932;48.616;9.270;2024-02-21T10:02:33;8.90;;;5.38;;
85523;SDS011;75932;48.616;9.270;2024-02-21T10:04:58;7.10;;;5.78;;
85523;SDS011;75932;48.616;9.270;2024-02-21T10:07:24;5.73;;;3.40;;
85523;SDS011;75932;48.616;9.270;2024-02-21T10:09:59;7.82;;;4.53;;
85523;SDS011;75932;48.616;9.270;2024-02-21T10:12:26;8.45;;;3.78;;
85523;SDS011;75932;48.616;9.270;2024-02-21T10:14:59;7.60;;;4.13;;
85523;SDS011;75932;48.616;9.270;2024-02-21T10:17:28;5.93;;;3.40;;
85523;SDS011;75932;48.616;9.270;2024-02-21T10:19:53;7.63;;;4.17;;
85523;SDS011;75932;48.616;9.270;2024-02-21T10:22:18;6.73;;;5.07;;
85523;SDS011;75932;48.616;9.270;2024-02-21T10:24:45;7.28;;;4.00;;
85523;SDS011;75932;48.616;9.270;2024-02-21T10:27:11;6.30;;;3.80;;
85523;SDS011;75932;48.616;9.270;2024-02-21T10:29:37;10.68;;;5.70;;
85523;SDS011;75932;48.616;9.270;2024-02-21T10:32:09;8.20;;;5.43;;
85523;SDS011;75932;48.616;9.270;2024-02-21T10:34:36;7.15;;;4.45;;
85523;SDS011;75932;48.616;9.270;2024-02-21T10:37:03;6.47;;;3.63;;
85523;SDS011;75932;48.616;9.270;2024-02-21T10:39:31;6.95;;;3.90;;
85523;SDS011;75932;48.616;9.270;2024-02-21T10:41:59;7.18;;;3.85;;
85523;SDS011;75932;48.616;9.270;2024-02-21T10:44:27;7.00;;;6.03;;
85523;SDS011;75932;48.616;9.270;2024-02-21T10:46:55;7.20;;;4.97;;
85523;SDS011;75932;48.616;9.270;2024-02-21T10:49:24;9.02;;;4.28;;
85523;SDS011;75932;48.616;9.270;2024-02-21T10:51:54;6.28;;;3.90;;
85523;SDS011;75932;48.616;9.270;2024-02-21T10:57:05;9.55;;;3.80;;
85523;SDS011;75932;48.616;9.270;2024-02-21T10:59:31;10.35;;;4.68;;
85523;SDS011;75932;48.616;9.270;2024-02-21T11:01:57;8.32;;;4.35;;
85523;SDS011;75932;48.616;9.270;2024-02-21T11:04:23;5.82;;;3.72;;
85523;SDS011;75932;48.616;9.270;2024-02-21T11:06:49;6.57;;;5.22;;
85523;SDS011;75932;48.616;9.270;2024-02-21T11:09:15;7.50;;;4.80;;
85523;SDS011;75932;48.616;9.270;2024-02-21T11:11:42;6.55;;;4.32;;
85523;SDS011;75932;48.616;9.270;2024-02-21T11:16:44;6.38;;;4.55;;
85523;SDS011;75932;48.616;9.270;2024-02-21T11:21:50;8.52;;;5.68;;
85523;SDS011;75932;48.616;9.270;2024-02-21T11:27:14;4.70;;;3.20;;
85523;SDS011;75932;48.616;9.270;2024-02-21T11:29:47;6.70;;;3.15;;
85523;SDS011;75932;48.616;9.270;2024-02-21T11:32:17;6.18;;;3.30;;
85523;SDS011;75932;48.616;9.270;2024-02-21T11:35:02;5.72;;;4.03;;
85523;SDS011;75932;48.616;9.270;2024-02-21T11:37:29;8.18;;;3.50;;
85523;SDS011;75932;48.616;9.270;2024-02-21T11:39:58;4.93;;;4.15;;
85523;SDS011;75932;48.616;9.270;2024-02-21T11:42:27;8.90;;;4.60;;
85523;SDS011;75932;48.616;9.270;2024-02-21T11:44:54;8.93;;;4.03;;
85523;SDS011;75932;48.616;9.270;2024-02-21T11:47:22;5.38;;;4.00;;
85523;SDS011;75932;48.616;9.270;2024-02-21T11:49:49;6.85;;;5.32;;
85523;SDS011;75932;48.616;9.270;2024-02-21T11:52:18;6.25;;;5.10;;
85523;SDS011;75932;48.616;9.270;2024-02-21T11:54:45;6.95;;;4.38;;
85523;SDS011;75932;48.616;9.270;2024-02-21T11:57:11;6.80;;;4.72;;
85523;SDS011;75932;48.616;9.270;2024-02-21T11:59:36;4.47;;;3.35;;
85523;SDS011;75932;48.616;9.270;2024-02-21T12:02:02;4.07;;;2.90;;
85523;SDS011;75932;48.616;9.270;2024-02-21T12:04:28;11.02;;;3.85;;
85523;SDS011;75932;48.616;9.270;2024-02-21T12:06:54;5.25;;;3.63;;
85523;SDS011;75932;48.616;9.270;2024-02-21T12:09:19;6.25;;;5.30;;
85523;SDS011;75932;48.616;9.270;2024-02-21T12:11:45;4.45;;;3.20;;
85523;SDS011;75932;48.616;9.270;2024-02-21T12:14:15;4.18;;;3.78;;
85523;SDS011;75932;48.616;9.270;2024-02-21T12:16:44;5.35;;;4.50;;
85523;SDS011;75932;48.616;9.270;2024-02-21T12:19:12;5.78;;;3.85;;
85523;SDS011;75932;48.616;9.270;2024-02-21T12:21:38;5.28;;;3.90;;
85523;SDS011;75932;48.616;9.270;2024-02-21T12:24:11;6.93;;;3.78;;
85523;SDS011;75932;48.616;9.270;2024-02-21T12:26:40;4.20;;;2.85;;
85523;SDS011;75932;48.616;9.270;2024-02-21T12:29:06;4.28;;;3.88;;
85523;SDS011;75932;48.616;9.270;2024-02-21T12:31:34;6.30;;;3.75;;
85523;SDS011;75932;48.616;9.270;2024-02-21T12:34:00;7.30;;;3.75;;
85523;SDS011;75932;48.616;9.270;2024-02-21T12:36:25;3.63;;;3.17;;
85523;SDS011;75932;48.616;9.270;2024-02-21T12:38:51;5.85;;;3.05;;
85523;SDS011;75932;48.616;9.270;2024-02-21T12:41:16;4.70;;;3.85;;
85523;SDS011;75932;48.616;9.270;2024-02-21T12:43:42;6.00;;;4.67;;
85523;SDS011;75932;48.616;9.270;2024-02-21T12:46:07;4.60;;;3.53;;
85523;SDS011;75932;48.616;9.270;2024-02-21T12:48:33;5.43;;;3.67;;
85523;SDS011;75932;48.616;9.270;2024-02-21T12:50:59;5.25;;;3.42;;
85523;SDS011;75932;48.616;9.270;2024-02-21T12:53:24;5.80;;;4.70;;
85523;SDS011;75932;48.616;9.270;2024-02-21T12:55:50;5.22;;;2.67;;
85523;SDS011;75932;48.616;9.270;2024-02-21T12:58:16;3.85;;;2.90;;
85523;SDS011;75932;48.616;9.270;2024-02-21T13:00:41;5.43;;;4.07;;
85523;SDS011;75932;48.616;9.270;2024-02-21T13:03:07;6.57;;;3.70;;
85523;SDS011;75932;48.616;9.270;2024-02-21T13:05:34;4.03;;;3.08;;
85523;SDS011;75932;48.616;9.270;2024-02-21T13:08:00;5.55;;;3.72;;
85523;SDS011;75932;48.616;9.270;2024-02-21T13:10:26;27.33;;;7.53;;
85523;SDS011;75932;48.616;9.270;2024-02-21T13:12:51;6.20;;;4.33;;
85523;SDS011;75932;48.616;9.270;2024-02-21T13:15:17;4.90;;;4.25;;
85523;SDS011;75932;48.616;9.270;2024-02-21T13:17:43;7.35;;;2.92;;
85523;SDS011;75932;48.616;9.270;2024-02-21T13:20:09;6.25;;;3.55;;
85523;SDS011;75932;48.616;9.270;2024-02-21T13:22:35;5.03;;;4.15;;
85523;SDS011;75932;48.616;9.270;2024-02-21T13:25:01;5.75;;;3.13;;
85523;SDS011;75932;48.616;9.270;2024-02-21T13:27:26;4.32;;;3.78;;
85523;SDS011;75932;48.616;9.270;2024-02-21T13:29:51;6.37;;;3.00;;
85523;SDS011;75932;48.616;9.270;2024-02-21T13:32:18;3.55;;;3.15;;
85523;SDS011;75932;48.616;9.270;2024-02-21T13:34:43;3.85;;;3.05;;
85523;SDS011;75932;48.616;9.270;2024-02-21T13:37:08;5.73;;;3.90;;
85523;SDS011;75932;48.616;9.270;2024-02-21T13:39:35;4.95;;;4.03;;
85523;SDS011;75932;48.616;9.270;2024-02-21T13:42:00;4.78;;;3.67;;
85523;SDS011;75932;48.616;9.270;2024-02-21T13:44:26;3.92;;;3.25;;
85523;SDS011;75932;48.616;9.270;2024-02-21T13:46:51;5.80;;;4.47;;
85523;SDS011;75932;48.616;9.270;2024-02-21T13:49:19;5.13;;;2.88;;
85523;SDS011;75932;48.616;9.270;2024-02-21T13:51:44;9.97;;;9.07;;
85523;SDS011;75932;48.616;9.270;2024-02-21T13:54:10;3.50;;;3.17;;
85523;SDS011;75932;48.616;9.270;2024-02-21T13:56:41;5.70;;;4.32;;
85523;SDS011;75932;48.616;9.270;2024-02-21T13:59:07;6.40;;;4.30;;
85523;SDS011;75932;48.616;9.270;2024-02-21T14:01:33;7.47;;;3.67;;
85523;SDS011;75932;48.616;9.270;2024-02-21T14:03:58;4.17;;;2.30;;
85523;SDS011;75932;48.616;9.270;2024-02-21T14:06:23;3.73;;;3.43;;
85523;SDS011;75932;48.616;9.270;2024-02-21T14:08:49;4.75;;;3.35;;
85523;SDS011;75932;48.616;9.270;2024-02-21T14:11:15;5.75;;;3.65;;
85523;SDS011;75932;48.616;9.270;2024-02-21T14:13:40;5.38;;;4.63;;
85523;SDS011;75932;48.616;9.270;2024-02-21T14:16:09;5.83;;;4.67;;
85523;SDS011;75932;48.616;9.270;2024-02-21T14:18:41;10.95;;;3.65;;
85523;SDS011;75932;48.616;9.270;2024-02-21T14:21:09;3.65;;;3.35;;
85523;SDS011;75932;48.616;9.270;2024-02-21T14:23:39;5.93;;;3.10;;
85523;SDS011;75932;48.616;9.270;2024-02-21T14:26:08;7.38;;;4.13;;
85523;SDS011;75932;48.616;9.270;2024-02-21T14:28:33;6.10;;;5.50;;
85523;SDS011;75932;48.616;9.270;2024-02-21T14:30:59;4.77;;;3.50;;
85523;SDS011;75932;48.616;9.270;2024-02-21T14:33:25;8.13;;;2.97;;
85523;SDS011;75932;48.616;9.270;2024-02-21T14:35:51;4.57;;;2.75;;
85523;SDS011;75932;48.616;9.270;2024-02-21T14:38:17;3.92;;;3.13;;
85523;SDS011;75932;48.616;9.270;2024-02-21T14:40:44;8.60;;;7.80;;
85523;SDS011;75932;48.616;9.270;2024-02-21T14:43:09;4.73;;;4.27;;
85523;SDS011;75932;48.616;9.270;2024-02-21T14:45:34;4.07;;;3.43;;
85523;SDS011;75932;48.616;9.270;2024-02-21T14:47:59;6.50;;;4.77;;
85523;SDS011;75932;48.616;9.270;2024-02-21T14:50:25;3.80;;;3.40;;
85523;SDS011;75932;48.616;9.270;2024-02-21T14:52:50;5.10;;;2.43;;